createdAt,value
2018-10-19T00:00:15.030Z,0.00
2018-10-19T00:01:15.017Z,0.00
2018-10-19T00:02:15.000Z,0.00
2018-10-19T00:03:15.067Z,0.00
2018-10-19T00:04:14.966Z,0.00
2018-10-19T00:05:14.968Z,0.00
2018-10-19T00:06:14.926Z,0.00
2018-10-19T00:07:14.910Z,0.00
2018-10-19T00:08:14.893Z,0.00
2018-10-19T00:09:15.092Z,0.00
2018-10-19T00:10:14.876Z,0.00
2018-10-19T00:11:14.942Z,0.00
2018-10-19T00:12:14.836Z,0.00
2018-10-19T00:13:14.817Z,0.00
2018-10-19T00:14:14.805Z,0.00
2018-10-19T00:15:14.935Z,0.00
2018-10-19T00:16:14.775Z,0.00
2018-10-19T00:17:14.844Z,0.00
2018-10-19T00:18:14.744Z,0.00
2018-10-19T00:19:14.737Z,0.00
2018-10-19T00:20:14.723Z,0.00
2018-10-19T00:21:14.751Z,0.00
2018-10-19T00:22:14.678Z,0.00
2018-10-19T00:23:14.812Z,0.00
2018-10-19T00:24:14.647Z,0.00
2018-10-19T00:25:14.661Z,0.00
2018-10-19T00:26:14.628Z,0.00
2018-10-19T00:27:14.658Z,0.00
2018-10-19T00:28:14.614Z,0.00
2018-10-19T00:29:14.646Z,0.00
2018-10-19T00:30:14.586Z,0.00
2018-10-19T00:31:14.547Z,0.00
2018-10-19T00:32:14.597Z,0.00
2018-10-19T00:33:14.628Z,0.00
2018-10-19T00:34:14.498Z,0.00
2018-10-19T00:35:14.558Z,0.00
2018-10-19T00:36:14.464Z,0.00
2018-10-19T00:37:14.456Z,0.00
2018-10-19T00:38:14.440Z,0.00
2018-10-19T00:39:14.452Z,0.00
2018-10-19T00:40:14.413Z,0.00
2018-10-19T00:41:14.448Z,0.00
2018-10-19T00:42:14.386Z,0.00
2018-10-19T00:43:14.414Z,0.00
2018-10-19T00:44:14.349Z,0.00
2018-10-19T00:45:14.434Z,0.00
2018-10-19T00:46:14.318Z,0.00
2018-10-19T00:47:14.349Z,0.00
2018-10-19T00:48:14.284Z,0.00
2018-10-19T00:49:14.271Z,0.00
2018-10-19T00:50:14.261Z,0.00
2018-10-19T00:51:14.322Z,0.00
2018-10-19T00:52:14.217Z,0.00
2018-10-19T00:53:14.284Z,0.00
2018-10-19T00:54:14.214Z,0.00
2018-10-19T00:55:14.184Z,0.00
2018-10-19T00:56:14.163Z,0.00
2018-10-19T00:57:14.192Z,0.00
2018-10-19T00:58:14.135Z,0.00
2018-10-19T00:59:14.297Z,0.00
2018-10-19T01:00:14.095Z,0.00
2018-10-19T01:01:14.078Z,0.00
2018-10-19T01:02:14.075Z,0.00
2018-10-19T01:03:14.136Z,0.00
2018-10-19T01:04:14.044Z,0.00
2018-10-19T01:05:14.120Z,0.00
2018-10-19T01:06:14.037Z,0.00
2018-10-19T01:07:14.015Z,0.00
2018-10-19T01:08:13.968Z,0.00
2018-10-19T01:09:13.960Z,0.00
2018-10-19T01:10:13.948Z,0.00
2018-10-19T01:11:14.059Z,0.00
2018-10-19T01:12:13.918Z,0.00
2018-10-19T01:13:13.908Z,0.00
2018-10-19T01:14:13.911Z,0.00
2018-10-19T01:15:13.928Z,0.00
2018-10-19T01:16:13.844Z,0.00
2018-10-19T01:17:13.928Z,0.00
2018-10-19T01:18:13.824Z,0.00
2018-10-19T01:19:13.804Z,0.00
2018-10-19T01:20:13.795Z,0.00
2018-10-19T01:21:13.852Z,0.00
2018-10-19T01:22:13.783Z,0.00
2018-10-19T01:23:13.793Z,0.00
2018-10-19T01:24:13.726Z,0.00
2018-10-19T01:25:13.706Z,0.00
2018-10-19T01:26:13.688Z,0.00
2018-10-19T01:27:13.742Z,0.00
2018-10-19T01:28:13.662Z,0.00
2018-10-19T01:29:13.720Z,0.00
2018-10-19T01:30:13.633Z,0.00
2018-10-19T01:31:13.608Z,0.00
2018-10-19T01:32:13.627Z,0.00
2018-10-19T01:33:13.595Z,0.00
2018-10-19T01:34:13.558Z,0.00
2018-10-19T01:35:13.566Z,0.00
2018-10-19T01:36:13.554Z,0.00
2018-10-19T01:37:13.517Z,0.00
2018-10-19T01:38:13.539Z,0.00
2018-10-19T01:39:13.552Z,0.00
2018-10-19T01:40:13.468Z,0.00
2018-10-19T01:41:13.535Z,0.00
2018-10-19T01:42:13.433Z,0.00
2018-10-19T01:43:13.422Z,0.00
2018-10-19T01:44:13.422Z,0.00
2018-10-19T01:45:13.561Z,0.00
2018-10-19T01:46:13.382Z,0.00
2018-10-19T01:47:13.419Z,0.00
2018-10-19T01:48:13.345Z,0.00
2018-10-19T01:49:13.401Z,0.00
2018-10-19T01:50:13.313Z,0.00
2018-10-19T01:51:13.411Z,0.00
2018-10-19T01:52:13.289Z,0.00
2018-10-19T01:53:13.301Z,0.00
2018-10-19T01:54:13.252Z,0.00
2018-10-19T01:55:13.269Z,0.00
2018-10-19T01:56:13.272Z,0.00
2018-10-19T01:57:13.282Z,0.00
2018-10-19T01:58:13.186Z,0.00
2018-10-19T01:59:13.278Z,0.00
2018-10-19T02:00:13.168Z,0.00
2018-10-19T02:01:13.364Z,0.00
2018-10-19T02:02:13.178Z,0.00
2018-10-19T02:03:13.225Z,0.00
2018-10-19T02:04:13.105Z,0.00
2018-10-19T02:05:13.144Z,0.00
2018-10-19T02:06:13.072Z,0.00
2018-10-19T02:07:13.052Z,0.00
2018-10-19T02:08:13.036Z,0.00
2018-10-19T02:09:13.074Z,0.00
2018-10-19T02:10:12.995Z,0.00
2018-10-19T02:11:13.075Z,0.00
2018-10-19T02:12:13.002Z,0.00
2018-10-19T02:13:12.966Z,0.00
2018-10-19T02:14:12.932Z,0.00
2018-10-19T02:15:13.062Z,0.00
2018-10-19T02:16:12.923Z,0.00
2018-10-19T02:17:12.992Z,0.00
2018-10-19T02:18:12.872Z,0.00
2018-10-19T02:19:12.857Z,0.00
2018-10-19T02:20:12.861Z,0.00
2018-10-19T02:21:12.840Z,0.00
2018-10-19T02:22:12.850Z,0.00
2018-10-19T02:23:12.860Z,0.00
2018-10-19T02:24:12.782Z,0.00
2018-10-19T02:25:12.766Z,0.00
2018-10-19T02:26:12.748Z,0.00
2018-10-19T02:27:12.865Z,0.00
2018-10-19T02:28:12.724Z,0.00
2018-10-19T02:29:12.770Z,0.00
2018-10-19T02:30:12.683Z,0.00
2018-10-19T02:31:12.967Z,0.00
2018-10-19T02:32:12.665Z,0.00
2018-10-19T02:33:12.708Z,0.00
2018-10-19T02:34:12.628Z,0.00
2018-10-19T02:35:12.723Z,0.00
2018-10-19T02:36:12.594Z,0.00
2018-10-19T02:37:12.578Z,0.00
2018-10-19T02:38:12.618Z,0.00
2018-10-19T02:39:12.551Z,0.00
2018-10-19T02:40:12.542Z,0.00
2018-10-19T02:41:12.584Z,0.00
2018-10-19T02:42:12.505Z,0.00
2018-10-19T02:43:12.493Z,0.00
2018-10-19T02:44:12.528Z,0.00
2018-10-19T02:45:12.530Z,0.00
2018-10-19T02:46:12.427Z,0.00
2018-10-19T02:47:12.572Z,0.00
2018-10-19T02:48:12.402Z,0.00
2018-10-19T02:49:12.395Z,0.00
2018-10-19T02:50:12.370Z,0.00
2018-10-19T02:51:12.435Z,0.00
2018-10-19T02:52:12.346Z,0.00
2018-10-19T02:53:12.335Z,0.00
2018-10-19T02:54:12.340Z,0.00
2018-10-19T02:55:12.287Z,0.00
2018-10-19T02:56:12.284Z,0.00
2018-10-19T02:57:12.357Z,0.00
2018-10-19T02:58:12.246Z,0.00
2018-10-19T02:59:12.315Z,0.00
2018-10-19T03:00:12.215Z,0.00
2018-10-19T03:01:12.209Z,0.00
2018-10-19T03:02:12.180Z,0.00
2018-10-19T03:03:12.183Z,0.00
2018-10-19T03:04:12.184Z,0.00
2018-10-19T03:05:12.223Z,0.00
2018-10-19T03:06:12.111Z,0.00
2018-10-19T03:07:12.127Z,0.00
2018-10-19T03:08:12.088Z,0.00
2018-10-19T03:09:12.126Z,0.00
2018-10-19T03:10:12.065Z,0.00
2018-10-19T03:11:12.077Z,0.00
2018-10-19T03:12:12.026Z,0.00
2018-10-19T03:13:12.023Z,0.00
2018-10-19T03:14:11.989Z,0.00
2018-10-19T03:15:12.096Z,0.00
2018-10-19T03:16:11.973Z,0.00
2018-10-19T03:17:12.010Z,0.00
2018-10-19T03:18:11.930Z,0.00
2018-10-19T03:19:11.930Z,0.00
2018-10-19T03:20:11.895Z,0.00
2018-10-19T03:21:11.986Z,0.00
2018-10-19T03:22:11.867Z,0.00
2018-10-19T03:23:11.939Z,0.00
2018-10-19T03:24:11.842Z,0.00
2018-10-19T03:25:11.814Z,0.00
2018-10-19T03:26:11.813Z,0.00
2018-10-19T03:27:11.861Z,0.00
2018-10-19T03:28:11.771Z,0.00
2018-10-19T03:29:11.835Z,0.00
2018-10-19T03:30:11.738Z,0.00
2018-10-19T03:31:11.831Z,0.00
2018-10-19T03:32:11.717Z,0.00
2018-10-19T03:33:11.760Z,0.00
2018-10-19T03:34:11.675Z,0.00
2018-10-19T03:35:11.787Z,0.00
2018-10-19T03:36:11.680Z,0.00
2018-10-19T03:37:11.637Z,0.00
2018-10-19T03:38:11.641Z,0.00
2018-10-19T03:39:11.656Z,0.00
2018-10-19T03:40:11.584Z,0.00
2018-10-19T03:41:11.760Z,0.00
2018-10-19T03:42:11.558Z,0.00
2018-10-19T03:43:11.533Z,0.00
2018-10-19T03:44:11.538Z,0.00
2018-10-19T03:45:11.589Z,0.00
2018-10-19T03:46:11.499Z,0.00
2018-10-19T03:47:11.549Z,0.00
2018-10-19T03:48:11.459Z,0.00
2018-10-19T03:49:11.613Z,0.00
2018-10-19T03:50:11.424Z,0.00
2018-10-19T03:51:11.459Z,0.00
2018-10-19T03:52:11.395Z,0.00
2018-10-19T03:53:11.453Z,0.00
2018-10-19T03:54:11.405Z,0.00
2018-10-19T03:55:11.331Z,0.00
2018-10-19T03:56:11.323Z,0.00
2018-10-19T03:57:11.372Z,0.00
2018-10-19T03:58:11.298Z,0.00
2018-10-19T03:59:11.332Z,0.00
2018-10-19T04:00:11.262Z,0.00
2018-10-19T04:01:11.482Z,0.00
2018-10-19T04:02:11.226Z,0.00
2018-10-19T04:03:11.273Z,0.00
2018-10-19T04:04:11.204Z,0.00
2018-10-19T04:05:11.283Z,0.00
2018-10-19T04:06:11.172Z,0.00
2018-10-19T04:07:11.152Z,0.00
2018-10-19T04:08:11.136Z,0.00
2018-10-19T04:09:11.121Z,0.00
2018-10-19T04:10:11.101Z,0.00
2018-10-19T04:11:11.161Z,0.00
2018-10-19T04:12:11.069Z,0.00
2018-10-19T04:13:11.057Z,0.00
2018-10-19T04:14:11.028Z,0.00
2018-10-19T04:15:11.054Z,0.00
2018-10-19T04:16:11.030Z,0.00
2018-10-19T04:17:11.064Z,0.00
2018-10-19T04:18:10.965Z,0.00
2018-10-19T04:19:10.968Z,0.00
2018-10-19T04:20:10.946Z,0.00
2018-10-19T04:21:10.987Z,0.00
2018-10-19T04:22:10.903Z,0.00
2018-10-19T04:23:10.975Z,0.00
2018-10-19T04:24:10.880Z,0.00
2018-10-19T04:25:10.854Z,0.00
2018-10-19T04:26:10.883Z,0.00
2018-10-19T04:27:10.922Z,0.00
2018-10-19T04:28:10.823Z,0.00
2018-10-19T04:29:10.817Z,0.00
2018-10-19T04:30:10.785Z,0.00
2018-10-19T04:31:10.769Z,0.00
2018-10-19T04:32:10.749Z,0.00
2018-10-19T04:33:10.797Z,0.00
2018-10-19T04:34:10.725Z,0.00
2018-10-19T04:35:10.774Z,0.00
2018-10-19T04:36:10.729Z,0.00
2018-10-19T04:37:10.666Z,0.00
2018-10-19T04:38:10.649Z,0.00
2018-10-19T04:39:10.780Z,0.00
2018-10-19T04:40:10.623Z,0.00
2018-10-19T04:41:10.716Z,0.00
2018-10-19T04:42:10.592Z,0.00
2018-10-19T04:43:10.579Z,0.00
2018-10-19T04:44:10.565Z,0.00
2018-10-19T04:45:10.619Z,0.00
2018-10-19T04:46:10.527Z,0.00
2018-10-19T04:47:10.562Z,0.00
2018-10-19T04:48:10.541Z,0.00
2018-10-19T04:49:10.550Z,0.00
2018-10-19T04:50:10.456Z,0.00
2018-10-19T04:51:10.517Z,0.00
2018-10-19T04:52:10.430Z,0.00
2018-10-19T04:53:10.444Z,0.00
2018-10-19T04:54:10.387Z,0.00
2018-10-19T04:55:10.439Z,0.00
2018-10-19T04:56:10.356Z,0.00
2018-10-19T04:57:10.384Z,0.00
2018-10-19T04:58:10.326Z,0.00
2018-10-19T04:59:10.370Z,0.00
2018-10-19T05:00:10.285Z,0.00
2018-10-19T05:01:10.457Z,0.00
2018-10-19T05:02:10.269Z,0.00
2018-10-19T05:03:10.397Z,0.00
2018-10-19T05:04:10.249Z,0.00
2018-10-19T05:05:10.367Z,0.00
2018-10-19T05:06:10.326Z,0.00
2018-10-19T05:07:10.193Z,0.00
2018-10-19T05:08:10.323Z,0.00
2018-10-19T05:09:10.163Z,0.00
2018-10-19T05:10:10.138Z,0.00
2018-10-19T05:11:10.313Z,0.00
2018-10-19T05:12:10.108Z,0.00
2018-10-19T05:13:10.147Z,0.00
2018-10-19T05:14:10.137Z,0.00
2018-10-19T05:15:10.051Z,0.00
2018-10-19T05:16:10.044Z,0.00
2018-10-19T05:17:10.056Z,0.00
2018-10-19T05:18:10.015Z,0.00
2018-10-19T05:19:09.988Z,0.00
2018-10-19T05:20:10.051Z,0.00
2018-10-19T05:21:09.976Z,0.00
2018-10-19T05:22:09.969Z,0.00
2018-10-19T05:23:09.988Z,0.00
2018-10-19T05:24:09.903Z,0.00
2018-10-19T05:25:09.899Z,0.00
2018-10-19T05:26:09.960Z,0.00
2018-10-19T05:27:09.853Z,0.00
2018-10-19T05:28:09.879Z,0.00
2018-10-19T05:29:09.885Z,4.00
2018-10-19T05:30:09.805Z,0.00
2018-10-19T05:31:09.997Z,0.00
2018-10-19T05:32:09.822Z,4.00
2018-10-19T05:33:09.774Z,4.00
2018-10-19T05:34:09.788Z,0.00
2018-10-19T05:35:09.788Z,4.00
2018-10-19T05:36:09.722Z,4.00
2018-10-19T05:37:09.690Z,8.00
2018-10-19T05:38:09.685Z,8.00
2018-10-19T05:39:09.751Z,8.00
2018-10-19T05:40:09.646Z,12.00
2018-10-19T05:41:09.665Z,12.00
2018-10-19T05:42:09.613Z,16.00
2018-10-19T05:43:09.600Z,16.00
2018-10-19T05:44:09.636Z,20.00
2018-10-19T05:45:09.590Z,24.00
2018-10-19T05:46:09.547Z,28.00
2018-10-19T05:47:09.601Z,32.00
2018-10-19T05:48:09.517Z,36.00
2018-10-19T05:49:09.529Z,44.00
2018-10-19T05:50:09.556Z,48.00
2018-10-19T05:51:09.485Z,52.00
2018-10-19T05:52:09.525Z,60.00
2018-10-19T05:53:09.475Z,68.00
2018-10-19T05:54:09.432Z,80.00
2018-10-19T05:55:09.394Z,84.00
2018-10-19T05:56:09.486Z,96.00
2018-10-19T05:57:09.375Z,104.00
2018-10-19T05:58:09.362Z,112.00
2018-10-19T05:59:09.379Z,124.00
2018-10-19T06:00:09.333Z,136.00
2018-10-19T06:01:09.593Z,148.00
2018-10-19T06:02:09.345Z,156.00
2018-10-19T06:03:09.268Z,172.00
2018-10-19T06:04:09.260Z,180.00
2018-10-19T06:05:09.291Z,196.00
2018-10-19T06:06:09.235Z,208.00
2018-10-19T06:07:09.218Z,220.00
2018-10-19T06:08:09.278Z,236.00
2018-10-19T06:09:09.184Z,252.00
2018-10-19T06:10:09.168Z,264.00
2018-10-19T06:11:09.219Z,276.00
2018-10-19T06:12:09.124Z,292.00
2018-10-19T06:13:09.123Z,304.00
2018-10-19T06:14:09.141Z,320.00
2018-10-19T06:15:09.089Z,336.00
2018-10-19T06:16:09.064Z,352.00
2018-10-19T06:17:09.269Z,364.00
2018-10-19T06:18:09.042Z,380.00
2018-10-19T06:19:09.020Z,396.00
2018-10-19T06:20:09.085Z,412.00
2018-10-19T06:21:09.027Z,428.00
2018-10-19T06:22:08.970Z,440.00
2018-10-19T06:23:09.043Z,452.00
2018-10-19T06:24:08.936Z,468.00
2018-10-19T06:25:08.915Z,488.00
2018-10-19T06:26:08.971Z,512.00
2018-10-19T06:27:08.916Z,532.00
2018-10-19T06:28:08.869Z,540.00
2018-10-19T06:29:08.979Z,552.00
2018-10-19T06:30:08.847Z,572.00
2018-10-19T06:31:08.822Z,592.00
2018-10-19T06:32:08.874Z,592.00
2018-10-19T06:33:08.803Z,620.00
2018-10-19T06:34:08.812Z,660.00
2018-10-19T06:35:08.804Z,696.00
2018-10-19T06:36:08.740Z,724.00
2018-10-19T06:37:08.727Z,736.00
2018-10-19T06:38:08.767Z,756.00
2018-10-19T06:39:08.733Z,772.00
2018-10-19T06:40:08.688Z,796.00
2018-10-19T06:41:08.731Z,804.00
2018-10-19T06:42:08.653Z,812.00
2018-10-19T06:43:08.628Z,836.00
2018-10-19T06:44:08.685Z,840.00
2018-10-19T06:45:08.602Z,844.00
2018-10-19T06:46:08.582Z,828.00
2018-10-19T06:47:08.690Z,848.00
2018-10-19T06:48:08.546Z,888.00
2018-10-19T06:49:08.628Z,904.00
2018-10-19T06:50:08.576Z,924.00
2018-10-19T06:51:08.496Z,940.00
2018-10-19T06:52:08.481Z,952.00
2018-10-19T06:53:08.547Z,956.00
2018-10-19T06:54:08.494Z,968.00
2018-10-19T06:55:08.438Z,980.00
2018-10-19T06:56:08.487Z,988.00
2018-10-19T06:57:08.415Z,1004.00
2018-10-19T06:58:08.405Z,1004.00
2018-10-19T06:59:08.505Z,1016.00
2018-10-19T07:00:08.384Z,1016.00
2018-10-19T07:01:08.352Z,1032.00
2018-10-19T07:02:08.396Z,1036.00
2018-10-19T07:03:08.327Z,1036.00
2018-10-19T07:04:08.299Z,1044.00
2018-10-19T07:05:08.474Z,1056.00
2018-10-19T07:06:08.324Z,1064.00
2018-10-19T07:07:08.252Z,1068.00
2018-10-19T07:08:08.406Z,1064.00
2018-10-19T07:09:08.216Z,1068.00
2018-10-19T07:10:08.214Z,1072.00
2018-10-19T07:11:08.250Z,1080.00
2018-10-19T07:12:08.261Z,1084.00
2018-10-19T07:13:08.161Z,1100.00
2018-10-19T07:14:08.190Z,1112.00
2018-10-19T07:15:08.142Z,1128.00
2018-10-19T07:16:08.113Z,1140.00
2018-10-19T07:17:08.132Z,1148.00
2018-10-19T07:18:08.066Z,1160.00
2018-10-19T07:19:08.134Z,1168.00
2018-10-19T07:20:08.097Z,1176.00
2018-10-19T07:21:08.032Z,1184.00
2018-10-19T07:22:08.033Z,1188.00
2018-10-19T07:23:07.998Z,1188.00
2018-10-19T07:24:07.974Z,1188.00
2018-10-19T07:25:07.970Z,1184.00
2018-10-19T07:26:08.045Z,1196.00
2018-10-19T07:27:07.960Z,1216.00
2018-10-19T07:28:07.916Z,1216.00
2018-10-19T07:29:07.944Z,1200.00
2018-10-19T07:30:07.873Z,1196.00
2018-10-19T07:31:07.919Z,1200.00
2018-10-19T07:32:07.893Z,1204.00
2018-10-19T07:33:07.824Z,1212.00
2018-10-19T07:34:07.946Z,1216.00
2018-10-19T07:35:07.837Z,1224.00
2018-10-19T07:36:07.778Z,1236.00
2018-10-19T07:37:08.021Z,1240.00
2018-10-19T07:38:08.010Z,1244.00
2018-10-19T07:39:07.739Z,1256.00
2018-10-19T07:40:07.722Z,1256.00
2018-10-19T07:41:07.815Z,1260.00
2018-10-19T07:42:07.740Z,1268.00
2018-10-19T07:43:07.671Z,1276.00
2018-10-19T07:44:07.671Z,1284.00
2018-10-19T07:45:07.632Z,1288.00
2018-10-19T07:46:07.618Z,1300.00
2018-10-19T07:47:07.704Z,1304.00
2018-10-19T07:48:07.724Z,1308.00
2018-10-19T07:49:07.582Z,1308.00
2018-10-19T07:50:07.627Z,1320.00
2018-10-19T07:51:07.592Z,1324.00
2018-10-19T07:52:07.554Z,1328.00
2018-10-19T07:53:07.606Z,1332.00
2018-10-19T07:54:07.555Z,1336.00
2018-10-19T07:55:07.486Z,1340.00
2018-10-19T07:56:07.564Z,1344.00
2018-10-19T07:57:07.524Z,1352.00
2018-10-19T07:58:07.439Z,1352.00
2018-10-19T07:59:07.493Z,1356.00
2018-10-19T08:00:07.466Z,1360.00
2018-10-19T08:01:07.444Z,1360.00
2018-10-19T08:02:07.452Z,1368.00
2018-10-19T08:03:07.369Z,1376.00
2018-10-19T08:04:07.346Z,1384.00
2018-10-19T08:05:07.359Z,1388.00
2018-10-19T08:06:07.311Z,1396.00
2018-10-19T08:07:07.363Z,1400.00
2018-10-19T08:08:07.290Z,1404.00
2018-10-19T08:09:07.268Z,1412.00
2018-10-19T08:10:07.257Z,1412.00
2018-10-19T08:11:07.258Z,1424.00
2018-10-19T08:12:07.219Z,1432.00
2018-10-19T08:13:07.199Z,1448.00
2018-10-19T08:14:07.214Z,1448.00
2018-10-19T08:15:07.178Z,1448.00
2018-10-19T08:16:07.162Z,1452.00
2018-10-19T08:17:07.237Z,1456.00
2018-10-19T08:18:07.123Z,1464.00
2018-10-19T08:19:07.102Z,1468.00
2018-10-19T08:20:07.140Z,1472.00
2018-10-19T08:21:07.120Z,1476.00
2018-10-19T08:22:07.056Z,1480.00
2018-10-19T08:23:07.130Z,1480.00
2018-10-19T08:24:07.040Z,1492.00
2018-10-19T08:25:07.014Z,1488.00
2018-10-19T08:26:07.065Z,1492.00
2018-10-19T08:27:06.982Z,1504.00
2018-10-19T08:28:06.958Z,1504.00
2018-10-19T08:29:07.043Z,1512.00
2018-10-19T08:30:06.932Z,1520.00
2018-10-19T08:31:06.919Z,1528.00
2018-10-19T08:32:06.948Z,1532.00
2018-10-19T08:33:06.886Z,1532.00
2018-10-19T08:34:06.870Z,1536.00
2018-10-19T08:35:06.898Z,1540.00
2018-10-19T08:36:06.846Z,1552.00
2018-10-19T08:37:06.835Z,1560.00
2018-10-19T08:38:06.818Z,1600.00
2018-10-19T08:39:07.178Z,1580.00
2018-10-19T08:40:06.834Z,1572.00
2018-10-19T08:41:06.956Z,1572.00
2018-10-19T08:42:06.874Z,1580.00
2018-10-19T08:43:07.089Z,1576.00
2018-10-19T08:44:06.817Z,1584.00
2018-10-19T08:45:06.765Z,1592.00
2018-10-19T08:46:06.714Z,1600.00
2018-10-19T08:47:06.700Z,1612.00
2018-10-19T08:48:06.648Z,1644.00
2018-10-19T08:49:06.673Z,1648.00
2018-10-19T08:50:06.628Z,1652.00
2018-10-19T08:51:06.648Z,1660.00
2018-10-19T08:52:06.598Z,1656.00
2018-10-19T08:53:06.655Z,1676.00
2018-10-19T08:54:06.578Z,1676.00
2018-10-19T08:55:06.593Z,1656.00
2018-10-19T08:56:06.563Z,1692.00
2018-10-19T08:57:06.563Z,1680.00
2018-10-19T08:58:06.515Z,1728.00
2018-10-19T08:59:06.512Z,1688.00
2018-10-19T09:00:06.478Z,1760.00
2018-10-19T09:01:06.462Z,1748.00
2018-10-19T09:02:06.469Z,1736.00
2018-10-19T09:03:06.497Z,1712.00
2018-10-19T09:04:06.465Z,1704.00
2018-10-19T09:05:06.425Z,1700.00
2018-10-19T09:06:06.492Z,1812.00
2018-10-19T09:07:06.403Z,1712.00
2018-10-19T09:08:06.345Z,1796.00
2018-10-19T09:09:06.377Z,2400.00
2018-10-19T09:10:06.324Z,1848.00
2018-10-19T09:11:06.354Z,2056.00
2018-10-19T09:12:06.301Z,1796.00
2018-10-19T09:13:06.277Z,1924.00
2018-10-19T09:14:06.297Z,1808.00
2018-10-19T09:15:06.262Z,1788.00
2018-10-19T09:16:06.236Z,1880.00
2018-10-19T09:17:06.281Z,1952.00
2018-10-19T09:18:06.193Z,1904.00
2018-10-19T09:19:06.224Z,1968.00
2018-10-19T09:20:06.165Z,2056.00
2018-10-19T09:21:06.219Z,2188.00
2018-10-19T09:22:06.141Z,2320.00
2018-10-19T09:23:06.155Z,2024.00
2018-10-19T09:24:06.106Z,1844.00
2018-10-19T09:25:06.097Z,1856.00
2018-10-19T09:26:06.079Z,1848.00
2018-10-19T09:27:06.129Z,1864.00
2018-10-19T09:28:06.052Z,1876.00
2018-10-19T09:29:06.091Z,1880.00
2018-10-19T09:30:06.019Z,1896.00
2018-10-19T09:31:05.999Z,1908.00
2018-10-19T09:32:06.025Z,1972.00
2018-10-19T09:33:06.003Z,1976.00
2018-10-19T09:34:05.974Z,2252.00
2018-10-19T09:35:06.011Z,1996.00
2018-10-19T09:36:06.026Z,1980.00
2018-10-19T09:37:05.981Z,2000.00
2018-10-19T09:38:05.896Z,2024.00
2018-10-19T09:39:05.989Z,2060.00
2018-10-19T09:40:05.898Z,2072.00
2018-10-19T09:41:05.959Z,2076.00
2018-10-19T09:42:05.909Z,2088.00
2018-10-19T09:43:06.002Z,2108.00
2018-10-19T09:44:05.815Z,2136.00
2018-10-19T09:45:05.807Z,2140.00
2018-10-19T09:46:05.784Z,2168.00
2018-10-19T09:47:05.816Z,2224.00
2018-10-19T09:48:05.743Z,2252.00
2018-10-19T09:49:05.785Z,2388.00
2018-10-19T09:50:05.708Z,2364.00
2018-10-19T09:51:05.778Z,2460.00
2018-10-19T09:52:05.682Z,2452.00
2018-10-19T09:53:05.705Z,2308.00
2018-10-19T09:54:05.692Z,2296.00
2018-10-19T09:55:05.675Z,2320.00
2018-10-19T09:56:05.681Z,2344.00
2018-10-19T09:57:05.836Z,2376.00
2018-10-19T09:58:05.591Z,2420.00
2018-10-19T09:59:05.628Z,2612.00
2018-10-19T10:00:05.642Z,2632.00
2018-10-19T10:01:05.613Z,2592.00
2018-10-19T10:02:05.563Z,2500.00
2018-10-19T10:03:05.571Z,2476.00
2018-10-19T10:04:05.531Z,2508.00
2018-10-19T10:05:05.523Z,2504.00
2018-10-19T10:06:05.482Z,2508.00
2018-10-19T10:07:05.480Z,2528.00
2018-10-19T10:08:05.538Z,2540.00
2018-10-19T10:09:05.511Z,2584.00
2018-10-19T10:10:05.413Z,2704.00
2018-10-19T10:11:07.422Z,2600.00
2018-10-19T10:12:05.462Z,2612.00
2018-10-19T10:13:05.394Z,2628.00
2018-10-19T10:14:05.387Z,2644.00
2018-10-19T10:15:05.484Z,2648.00
2018-10-19T10:16:05.321Z,2644.00
2018-10-19T10:17:05.338Z,2656.00
2018-10-19T10:18:05.298Z,2680.00
2018-10-19T10:19:05.283Z,2664.00
2018-10-19T10:20:05.275Z,2656.00
2018-10-19T10:21:05.243Z,2656.00
2018-10-19T10:22:05.607Z,2684.00
2018-10-19T10:23:05.229Z,2692.00
2018-10-19T10:24:05.337Z,2720.00
2018-10-19T10:25:05.259Z,2696.00
2018-10-19T10:26:05.181Z,2692.00
2018-10-19T10:27:05.155Z,2712.00
2018-10-19T10:28:05.148Z,2724.00
2018-10-19T10:29:05.138Z,2800.00
2018-10-19T10:30:05.111Z,2860.00
2018-10-19T10:31:05.179Z,2588.00
2018-10-19T10:32:05.129Z,3244.00
2018-10-19T10:33:05.081Z,4104.00
2018-10-19T10:34:05.115Z,5596.00
2018-10-19T10:35:05.093Z,2900.00
2018-10-19T10:36:05.034Z,3256.00
2018-10-19T10:37:05.084Z,4168.00
2018-10-19T10:38:05.012Z,3608.00
2018-10-19T10:39:05.063Z,3180.00
2018-10-19T10:40:05.062Z,3128.00
2018-10-19T10:41:04.988Z,3728.00
2018-10-19T10:42:04.979Z,3332.00
2018-10-19T10:43:04.968Z,2828.00
2018-10-19T10:44:04.919Z,2784.00
2018-10-19T10:45:04.962Z,2780.00
2018-10-19T10:46:04.962Z,2832.00
2018-10-19T10:47:04.921Z,2908.00
2018-10-19T10:48:04.866Z,3256.00
2018-10-19T10:49:04.864Z,2952.00
2018-10-19T10:50:04.844Z,3208.00
2018-10-19T10:51:04.856Z,2996.00
2018-10-19T10:52:04.897Z,3296.00
2018-10-19T10:53:04.780Z,4196.00
2018-10-19T10:54:04.776Z,3444.00
2018-10-19T10:55:04.811Z,3384.00
2018-10-19T10:56:04.740Z,3168.00
2018-10-19T10:57:04.768Z,3448.00
2018-10-19T10:58:04.768Z,3688.00
2018-10-19T10:59:04.699Z,4452.00
2018-10-19T11:00:04.717Z,3620.00
2018-10-19T11:01:04.682Z,2868.00
2018-10-19T11:02:04.697Z,2840.00
2018-10-19T11:03:04.678Z,2852.00
2018-10-19T11:04:04.648Z,3072.00
2018-10-19T11:05:04.629Z,2920.00
2018-10-19T11:06:04.633Z,2880.00
2018-10-19T11:07:04.650Z,2884.00
2018-10-19T11:08:04.583Z,2920.00
2018-10-19T11:09:04.581Z,2924.00
2018-10-19T11:10:04.565Z,3092.00
2018-10-19T11:11:04.529Z,2948.00
2018-10-19T11:12:04.560Z,2892.00
2018-10-19T11:13:04.504Z,2964.00
2018-10-19T11:14:04.502Z,2908.00
2018-10-19T11:15:04.483Z,2904.00
2018-10-19T11:16:04.500Z,2912.00
2018-10-19T11:17:04.483Z,2896.00
2018-10-19T11:18:04.467Z,2860.00
2018-10-19T11:19:04.462Z,2944.00
2018-10-19T11:20:04.404Z,2948.00
2018-10-19T11:21:04.400Z,2980.00
2018-10-19T11:22:04.414Z,3192.00
2018-10-19T11:23:04.365Z,3180.00
2018-10-19T11:24:04.411Z,3432.00
2018-10-19T11:25:04.408Z,3956.00
2018-10-19T11:26:04.320Z,3576.00
2018-10-19T11:27:04.317Z,3828.00
2018-10-19T11:28:05.498Z,3508.00
2018-10-19T11:29:04.528Z,3660.00
2018-10-19T11:30:04.494Z,4400.00
2018-10-19T11:31:04.301Z,8184.00
2018-10-19T11:32:04.233Z,11488.00
2018-10-19T11:33:04.222Z,17504.00
2018-10-19T11:34:04.221Z,18400.00
2018-10-19T11:35:04.258Z,22080.00
2018-10-19T11:36:04.185Z,21056.00
2018-10-19T11:37:04.188Z,18240.00
2018-10-19T11:38:04.184Z,21568.00
2018-10-19T11:39:04.149Z,22272.00
2018-10-19T11:40:04.163Z,14016.00
2018-10-19T11:41:04.119Z,6808.00
2018-10-19T11:42:04.115Z,5124.00
2018-10-19T11:43:04.134Z,4564.00
2018-10-19T11:44:04.081Z,3456.00
2018-10-19T11:45:04.059Z,3284.00
2018-10-19T11:46:04.081Z,3224.00
2018-10-19T11:47:04.037Z,3324.00
2018-10-19T11:48:04.038Z,3232.00
2018-10-19T11:49:04.072Z,4364.00
2018-10-19T11:50:04.030Z,4076.00
2018-10-19T11:51:04.008Z,3308.00
2018-10-19T11:52:04.023Z,3504.00
2018-10-19T11:53:03.971Z,3472.00
2018-10-19T11:54:03.952Z,3444.00
2018-10-19T11:55:03.966Z,3404.00
2018-10-19T11:56:03.933Z,3604.00
2018-10-19T11:57:03.949Z,3424.00
2018-10-19T11:58:03.966Z,3428.00
2018-10-19T11:59:03.891Z,3416.00
2018-10-19T12:00:03.885Z,3348.00
2018-10-19T12:01:03.935Z,3376.00
2018-10-19T12:02:03.857Z,3368.00
2018-10-19T12:03:03.850Z,3368.00
2018-10-19T12:04:03.852Z,3352.00
2018-10-19T12:05:03.826Z,3320.00
2018-10-19T12:06:03.840Z,3316.00
2018-10-19T12:07:03.863Z,3336.00
2018-10-19T12:08:03.780Z,3392.00
2018-10-19T12:09:03.767Z,3468.00
2018-10-19T12:10:03.767Z,3552.00
2018-10-19T12:11:03.802Z,3616.00
2018-10-19T12:12:03.726Z,3864.00
2018-10-19T12:13:03.724Z,5124.00
2018-10-19T12:14:03.701Z,8024.00
2018-10-19T12:15:03.755Z,5536.00
2018-10-19T12:16:03.742Z,4112.00
2018-10-19T12:17:03.748Z,3740.00
2018-10-19T12:18:03.656Z,3608.00
2018-10-19T12:19:03.682Z,3680.00
2018-10-19T12:20:03.649Z,3756.00
2018-10-19T12:21:03.765Z,3936.00
2018-10-19T12:22:03.687Z,3932.00
2018-10-19T12:23:03.583Z,3800.00
2018-10-19T12:24:03.584Z,3852.00
2018-10-19T12:25:03.578Z,3880.00
2018-10-19T12:26:03.573Z,3984.00
2018-10-19T12:27:03.599Z,4092.00
2018-10-19T12:28:03.552Z,4372.00
2018-10-19T12:29:03.503Z,4700.00
2018-10-19T12:30:03.549Z,4372.00
2018-10-19T12:31:03.507Z,4468.00
2018-10-19T12:32:03.567Z,4360.00
2018-10-19T12:33:03.548Z,4200.00
2018-10-19T12:34:03.452Z,4092.00
2018-10-19T12:35:03.433Z,4036.00
2018-10-19T12:36:03.415Z,4132.00
2018-10-19T12:37:03.481Z,4728.00
2018-10-19T12:38:03.429Z,4424.00
2018-10-19T12:39:03.444Z,4348.00